Time,TemperatureF,DewpointF,PressureIn,WindDirection,WindDirectionDegrees,WindSpeedMPH,WindSpeedGustMPH,Humidity,HourlyPrecipIn,Conditions,Clouds,dailyrainin,SolarRadiationWatts/m^2,SoftwareType,DateUTC
2013-04-21 00:00:00,18.0,14.0,-100.00,SW,225,0.0,-999.0,82,-99.99,,,-99.99,0.000000,,2013-04-21 04:00:00,
2013-04-21 00:43:00,18.0,14.0,-100.00,SW,225,0.0,-999.0,82,-99.99,,,-99.99,0.000000,,2013-04-21 04:43:00,
2013-04-21 00:53:00,18.0,14.0,-100.00,SW,225,0.0,-999.0,82,-99.99,,,-99.99,0.000000,,2013-04-21 04:53:00,
2013-04-21 01:00:00,15.0,11.0,-100.00,SW,225,0.0,-999.0,83,-99.99,,,-99.99,0.000000,,2013-04-21 05:00:00,
2013-04-21 01:43:00,15.0,11.0,-100.00,SW,225,0.0,-999.0,83,-99.99,,,-99.99,0.000000,,2013-04-21 05:43:00,
2013-04-21 01:52:00,15.0,11.0,-100.00,SW,225,0.0,-999.0,83,-99.99,,,-99.99,0.000000,,2013-04-21 05:52:00,
2013-04-21 02:00:00,9.0,7.0,-100.00,SW,225,0.0,-999.0,89,-99.99,,,-99.99,0.000000,,2013-04-21 06:00:00,
2013-04-21 02:42:00,9.0,7.0,-100.00,SW,225,0.0,-999.0,89,-99.99,,,-99.99,0.000000,,2013-04-21 06:42:00,
2013-04-21 02:52:00,9.0,7.0,-100.00,SW,225,0.0,-999.0,89,-99.99,,,-99.99,0.000000,,2013-04-21 06:52:00,
2013-04-21 03:00:00,12.0,10.0,-100.00,SW,225,0.0,-999.0,93,-99.99,,,-99.99,0.000000,,2013-04-21 07:00:00,
2013-04-21 03:42:00,12.0,10.0,-100.00,SW,225,0.0,-999.0,93,-99.99,,,-99.99,0.000000,,2013-04-21 07:42:00,
2013-04-21 03:52:00,12.0,10.0,-100.00,SW,225,0.0,-999.0,93,-99.99,,,-99.99,0.000000,,2013-04-21 07:52:00,
2013-04-21 04:00:00,13.0,11.0,-100.00,SSW,202,0.0,-999.0,91,-99.99,,,-99.99,0.000000,,2013-04-21 08:00:00,
2013-04-21 04:42:00,13.0,11.0,-100.00,SSW,202,0.0,-999.0,91,-99.99,,,-99.99,0.000000,,2013-04-21 08:42:00,
2013-04-21 04:52:00,13.0,11.0,-100.00,SSW,202,0.0,-999.0,91,-99.99,,,-99.99,0.000000,,2013-04-21 08:52:00,
2013-04-21 05:00:00,16.0,12.0,-100.00,South,180,0.0,-999.0,84,-99.99,,,-99.99,0.000000,,2013-04-21 09:00:00,
2013-04-21 05:43:00,16.0,12.0,-100.00,South,180,0.0,-999.0,84,-99.99,,,-99.99,0.000000,,2013-04-21 09:43:00,
2013-04-21 05:53:00,16.0,12.0,-100.00,South,180,0.0,-999.0,84,-99.99,,,-99.99,0.000000,,2013-04-21 09:53:00,
2013-04-21 06:00:00,17.0,13.0,-100.00,South,180,0.0,-999.0,81,-99.99,,,-99.99,0.000000,,2013-04-21 10:00:00,
2013-04-21 06:42:00,17.0,13.0,-100.00,South,180,0.0,-999.0,81,-99.99,,,-99.99,0.000000,,2013-04-21 10:42:00,
2013-04-21 06:52:00,17.0,13.0,-100.00,South,180,0.0,-999.0,81,-99.99,,,-99.99,0.000000,,2013-04-21 10:52:00,
2013-04-21 07:00:00,18.0,13.0,-100.00,South,180,0.0,-999.0,82,-99.99,,,-99.99,3.480000,,2013-04-21 11:00:00,
2013-04-21 07:42:00,18.0,13.0,-100.00,South,180,0.0,-999.0,82,-99.99,,,-99.99,3.480000,,2013-04-21 11:42:00,
2013-04-21 07:52:00,18.0,13.0,-100.00,South,180,0.0,-999.0,82,-99.99,,,-99.99,3.480000,,2013-04-21 11:52:00,
2013-04-21 08:00:00,20.0,15.0,-100.00,SSE,157,1.0,-999.0,81,-99.99,,,-99.99,56.840000,,2013-04-21 12:00:00,
2013-04-21 08:42:00,20.0,15.0,-100.00,SSE,157,1.0,-999.0,81,-99.99,,,-99.99,56.840000,,2013-04-21 12:42:00,
2013-04-21 08:52:00,20.0,15.0,-100.00,SSE,157,1.0,-999.0,81,-99.99,,,-99.99,56.840000,,2013-04-21 12:52:00,
2013-04-21 09:00:00,23.0,17.0,-100.00,SSE,157,4.0,-999.0,76,-99.99,,,-99.99,190.240005,,2013-04-21 13:00:00,
2013-04-21 09:42:00,23.0,17.0,-100.00,SSE,157,4.0,-999.0,76,-99.99,,,-99.99,190.240005,,2013-04-21 13:42:00,
2013-04-21 09:52:00,23.0,17.0,-100.00,SSE,157,4.0,-999.0,76,-99.99,,,-99.99,190.240005,,2013-04-21 13:52:00,
2013-04-21 10:00:00,29.0,20.0,-100.00,SSE,157,6.0,-999.0,69,-99.99,,,-99.99,377.000000,,2013-04-21 14:00:00,
2013-04-21 10:42:00,29.0,20.0,-100.00,SSE,157,6.0,-999.0,69,-99.99,,,-99.99,377.000000,,2013-04-21 14:42:00,
2013-04-21 10:52:00,29.0,20.0,-100.00,SSE,157,6.0,-999.0,69,-99.99,,,-99.99,377.000000,,2013-04-21 14:52:00,
2013-04-21 11:00:00,33.0,23.0,-100.00,South,180,8.0,-999.0,66,-99.99,,,-99.99,515.039978,,2013-04-21 15:00:00,
2013-04-21 11:43:00,33.0,23.0,-100.00,South,180,8.0,-999.0,66,-99.99,,,-99.99,515.039978,,2013-04-21 15:43:00,
2013-04-21 11:53:00,33.0,23.0,-100.00,South,180,8.0,-999.0,66,-99.99,,,-99.99,515.039978,,2013-04-21 15:53:00,
2013-04-21 12:00:00,36.0,23.0,-100.00,South,180,9.0,-999.0,59,-99.99,,,-99.99,644.960022,,2013-04-21 16:00:00,
2013-04-21 12:42:00,36.0,23.0,-100.00,South,180,9.0,-999.0,59,-99.99,,,-99.99,644.960022,,2013-04-21 16:42:00,
2013-04-21 12:53:00,36.0,23.0,-100.00,South,180,9.0,-999.0,59,-99.99,,,-99.99,644.960022,,2013-04-21 16:53:00,
2013-04-21 13:00:00,38.0,22.0,-100.00,SSW,202,9.0,-999.0,52,-99.99,,,-99.99,651.919983,,2013-04-21 17:00:00,
2013-04-21 13:42:00,38.0,22.0,-100.00,SSW,202,9.0,-999.0,52,-99.99,,,-99.99,651.919983,,2013-04-21 17:42:00,
2013-04-21 13:52:00,38.0,22.0,-100.00,SSW,202,9.0,-999.0,52,-99.99,,,-99.99,651.919983,,2013-04-21 17:52:00,
2013-04-21 14:00:00,39.0,21.0,-100.00,South,180,10.0,-999.0,47,-99.99,,,-99.99,738.919983,,2013-04-21 18:00:00,
2013-04-21 14:42:00,39.0,21.0,-100.00,South,180,10.0,-999.0,47,-99.99,,,-99.99,738.919983,,2013-04-21 18:42:00,
2013-04-21 14:52:00,39.0,21.0,-100.00,South,180,10.0,-999.0,47,-99.99,,,-99.99,738.919983,,2013-04-21 18:52:00,
2013-04-21 16:00:00,39.0,21.0,-100.00,South,180,11.0,-999.0,46,-99.99,,,-99.99,748.200012,,2013-04-21 20:00:00,
2013-04-21 16:42:00,39.0,21.0,-100.00,South,180,11.0,-999.0,46,-99.99,,,-99.99,748.200012,,2013-04-21 20:42:00,
2013-04-21 16:52:00,39.0,21.0,-100.00,South,180,11.0,-999.0,46,-99.99,,,-99.99,748.200012,,2013-04-21 20:52:00,
2013-04-21 17:00:00,40.0,20.0,-100.00,South,180,10.0,-999.0,44,-99.99,,,-99.99,661.200012,,2013-04-21 21:00:00,
2013-04-21 17:43:00,40.0,20.0,-100.00,South,180,10.0,-999.0,44,-99.99,,,-99.99,661.200012,,2013-04-21 21:43:00,
2013-04-21 17:53:00,40.0,20.0,-100.00,South,180,10.0,-999.0,44,-99.99,,,-99.99,661.200012,,2013-04-21 21:53:00,
2013-04-21 18:00:00,38.0,17.0,-100.00,South,180,10.0,-999.0,41,-99.99,,,-99.99,395.559998,,2013-04-21 22:00:00,
2013-04-21 18:43:00,38.0,17.0,-100.00,South,180,10.0,-999.0,41,-99.99,,,-99.99,395.559998,,2013-04-21 22:43:00,
2013-04-21 18:52:00,38.0,17.0,-100.00,South,180,10.0,-999.0,41,-99.99,,,-99.99,395.559998,,2013-04-21 22:52:00,
2013-04-21 19:00:00,37.0,19.0,-100.00,SSE,157,9.0,-999.0,48,-99.99,,,-99.99,213.440002,,2013-04-21 23:00:00,
2013-04-21 19:43:00,37.0,19.0,-100.00,SSE,157,9.0,-999.0,48,-99.99,,,-99.99,213.440002,,2013-04-21 23:43:00,
2013-04-21 19:52:00,37.0,19.0,-100.00,SSE,157,9.0,-999.0,48,-99.99,,,-99.99,213.440002,,2013-04-21 23:52:00,
2013-04-21 22:00:00,34.0,26.0,-100.00,SSE,157,7.0,-999.0,72,-99.99,,,-99.99,0.000000,,2013-04-22 02:00:00,
2013-04-21 22:42:00,34.0,26.0,-100.00,SSE,157,7.0,-999.0,72,-99.99,,,-99.99,0.000000,,2013-04-22 02:42:00,
2013-04-21 22:52:00,34.0,26.0,-100.00,SSE,157,7.0,-999.0,72,-99.99,,,-99.99,0.000000,,2013-04-22 02:52:00,
2013-04-21 23:00:00,33.0,27.0,-100.00,South,180,7.0,-999.0,76,-99.99,,,-99.99,0.000000,,2013-04-22 03:00:00,
2013-04-21 23:43:00,33.0,27.0,-100.00,South,180,7.0,-999.0,76,-99.99,,,-99.99,0.000000,,2013-04-22 03:43:00,
2013-04-21 23:52:00,33.0,27.0,-100.00,South,180,7.0,-999.0,76,-99.99,,,-99.99,0.000000,,2013-04-22 03:52:00,